Time;durP1;ratioP1;P1;durP2;ratioP2;P2;SDS_P1;SDS_P2;PMS_P1;PMS_P2;Temp;Humidity;BMP_temperature;BMP_pressure;BME280_temperature;BME280_humidity;BME280_pressure;Samples;Min_cycle;Max_cycle;Signal;HPM_P1;HPM_P2
2022/11/21 00:01:57;;;;;;;30.17;18.35;;;;;;;-1.73;87.21;99956.78;7397444;19;20077;-68
2022/11/21 00:04:25;;;;;;;32.50;17.83;;;;;;;-1.73;87.00;99949.06;7397448;19;20501;-68
2022/11/21 00:06:54;;;;;;;31.60;18.35;;;;;;;-1.73;86.86;99943.94;7399408;19;20082;-68
2022/11/21 00:09:25;;;;;;;31.60;18.13;;;;;;;-1.72;87.05;99939.63;7399615;19;20021;-69
2022/11/21 00:11:53;;;;;;;31.38;18.15;;;;;;;-1.74;86.60;99931.03;7397403;19;20019;-68
2022/11/21 00:14:22;;;;;;;31.80;18.88;;;;;;;-1.76;86.57;99941.28;7397343;19;20378;-68
2022/11/21 00:16:50;;;;;;;33.53;20.05;;;;;;;-1.77;86.74;99931.84;7396850;19;20023;-68
2022/11/21 00:19:19;;;;;;;33.35;19.80;;;;;;;-1.79;86.84;99928.41;7398950;19;20553;-68
2022/11/21 00:21:47;;;;;;;34.70;20.20;;;;;;;-1.82;86.95;99924.06;7398949;19;20439;-68
2022/11/21 00:24:15;;;;;;;32.47;19.15;;;;;;;-1.83;87.17;99921.47;7396634;19;20082;-69
2022/11/21 00:26:47;;;;;;;36.97;20.95;;;;;;;-1.84;87.06;99919.75;7398661;19;20039;-68
2022/11/21 00:29:15;;;;;;;35.10;19.25;;;;;;;-1.85;87.34;99926.56;7399535;19;20022;-68
2022/11/21 00:31:43;;;;;;;36.25;19.88;;;;;;;-1.83;87.25;99918.91;7398644;19;20502;-68
2022/11/21 00:34:12;;;;;;;35.75;20.83;;;;;;;-1.83;87.14;99917.19;7397239;19;20014;-68
2022/11/21 00:36:40;;;;;;;38.28;22.20;;;;;;;-1.83;87.33;99918.91;7398779;19;20091;-68
2022/11/21 00:39:09;;;;;;;35.72;20.10;;;;;;;-1.83;87.23;99919.75;7398721;19;20069;-69
2022/11/21 00:41:37;;;;;;;36.13;21.23;;;;;;;-1.82;87.58;99912.91;7396097;19;20518;-69
2022/11/21 00:44:08;;;;;;;35.42;19.52;;;;;;;-1.81;87.48;99915.53;7397006;19;20063;-68
2022/11/21 00:46:37;;;;;;;35.78;20.13;;;;;;;-1.81;87.44;99905.25;7398577;19;20074;-68
2022/11/21 00:49:12;;;;;;;34.35;20.20;;;;;;;-1.77;87.46;99902.69;7396001;19;20379;-68
2022/11/21 00:51:41;;;;;;;36.60;20.33;;;;;;;-1.77;87.44;99894.97;7397904;19;20032;-68
2022/11/21 00:54:10;;;;;;;39.78;22.08;;;;;;;-1.77;87.23;99898.41;7396829;19;20022;-69
2022/11/21 00:56:39;;;;;;;37.60;20.42;;;;;;;-1.78;87.22;99893.25;7398089;19;20027;-69
2022/11/21 00:59:10;;;;;;;34.70;19.98;;;;;;;-1.77;87.38;99897.56;7397542;19;20549;-69
2022/11/21 01:01:38;;;;;;;37.97;21.10;;;;;;;-1.77;87.63;99893.25;7395626;19;20022;-69
2022/11/21 01:04:07;;;;;;;36.95;21.45;;;;;;;-1.74;87.63;99895.03;7395715;19;20031;-69
2022/11/21 01:06:36;;;;;;;35.47;21.25;;;;;;;-1.74;87.67;99895.03;7395843;19;20031;-69
2022/11/21 01:09:04;;;;;;;34.10;20.23;;;;;;;-1.73;87.52;99896.75;7397745;19;20022;-69
2022/11/21 01:11:33;;;;;;;36.53;20.58;;;;;;;-1.71;87.55;99892.50;7394306;19;20015;-69
2022/11/21 01:14:02;;;;;;;35.75;20.52;;;;;;;-1.70;87.86;99889.09;7395577;19;20082;-69
2022/11/21 01:16:33;;;;;;;37.10;21.58;;;;;;;-1.68;87.80;99889.97;7397500;19;20015;-69
2022/11/21 01:19:02;;;;;;;36.50;21.08;;;;;;;-1.66;87.69;99893.44;7396024;19;20022;-69
2022/11/21 01:21:32;;;;;;;37.03;20.35;;;;;;;-1.66;87.52;99904.56;7397002;19;20034;-69
2022/11/21 01:24:02;;;;;;;34.63;20.30;;;;;;;-1.65;87.65;99895.16;7395349;19;20082;-68
2022/11/21 01:26:32;;;;;;;34.97;19.85;;;;;;;-1.65;87.62;99890.88;7397159;19;20014;-68
2022/11/21 01:29:01;;;;;;;35.90;20.38;;;;;;;-1.64;87.64;99887.47;7397566;19;20022;-69
2022/11/21 01:31:33;;;;;;;34.38;20.67;;;;;;;-1.63;87.63;99875.47;7397025;19;20014;-69
2022/11/21 01:34:02;;;;;;;37.17;21.15;;;;;;;-1.62;87.80;99876.34;7395444;19;20086;-69
2022/11/21 01:36:33;;;;;;;39.30;21.67;;;;;;;-1.62;87.91;99879.75;7395108;19;20086;-68
2022/11/21 01:39:04;;;;;;;35.13;19.08;;;;;;;-1.59;87.84;99882.41;7396822;19;20413;-69
2022/11/21 01:41:37;;;;;;;36.30;19.88;;;;;;;-1.58;87.69;99871.28;7397064;19;20018;-69
2022/11/21 01:44:15;;;;;;;34.15;19.33;;;;;;;-1.57;87.82;99872.97;7395747;19;20078;-69
2022/11/21 01:46:46;;;;;;;34.58;20.17;;;;;;;-1.56;87.63;99869.56;7396180;19;20485;-69
2022/11/21 01:49:19;;;;;;;37.95;20.65;;;;;;;-1.55;87.59;99866.16;7394554;19;20011;-69
2022/11/21 01:51:52;;;;;;;35.95;20.17;;;;;;;-1.54;87.82;99860.16;7395980;19;20410;-69
2022/11/21 01:54:25;;;;;;;35.08;20.33;;;;;;;-1.53;87.76;99861.00;7394753;19;20031;-69
2022/11/21 01:57:01;;;;;;;35.65;20.48;;;;;;;-1.54;87.59;99855.03;7396641;19;20021;-69
2022/11/21 01:59:33;;;;;;;35.67;19.67;;;;;;;-1.53;87.68;99859.31;7395774;19;20023;-69
2022/11/21 02:02:08;;;;;;;38.05;20.92;;;;;;;-1.53;87.81;99849.03;7394859;19;20022;-69
2022/11/21 02:04:37;;;;;;;;;;;;;;;-1.51;87.45;99847.31;7395074;19;20018;-68
2022/11/21 02:07:08;;;;;;;35.70;19.70;;;;;;;-1.52;87.63;99848.16;7395531;19;20323;-69
2022/11/21 02:09:41;;;;;;;39.00;21.65;;;;;;;-1.52;87.61;99845.59;7396176;19;20031;-69
2022/11/21 02:12:13;;;;;;;39.53;21.98;;;;;;;-1.53;87.85;99845.59;7395425;19;20018;-69
2022/11/21 02:14:43;;;;;;;35.75;21.10;;;;;;;-1.53;87.96;99838.75;7395260;19;20023;-68
2022/11/21 02:17:14;;;;;;;39.75;21.48;;;;;;;-1.53;87.75;99836.16;7394361;19;20066;-68
2022/11/21 02:19:51;;;;;;;37.03;21.92;;;;;;;-1.53;87.95;99837.88;7395650;19;20026;-68
2022/11/21 02:22:28;;;;;;;34.97;19.63;;;;;;;-1.54;87.88;99844.72;7391722;19;20074;-68
2022/11/21 02:25:06;;;;;;;36.42;20.30;;;;;;;-1.55;87.80;99835.28;7393524;19;20082;-68
2022/11/21 02:27:35;;;;;;;39.75;22.77;;;;;;;-1.56;88.04;99833.53;7395862;19;20035;-68
2022/11/21 02:30:06;;;;;;;33.70;19.83;;;;;;;-1.58;87.93;99830.09;7394920;19;20078;-68
2022/11/21 02:32:37;;;;;;;36.58;19.50;;;;;;;-1.57;88.11;99825.81;7395661;19;20368;-68
2022/11/21 02:35:07;;;;;;;37.53;20.73;;;;;;;-1.59;88.20;99818.09;7395454;19;20427;-68
2022/11/21 02:37:37;;;;;;;33.88;19.25;;;;;;;-1.59;88.20;99815.50;7394713;19;20498;-68
2022/11/21 02:40:11;;;;;;;35.20;20.23;;;;;;;-1.59;88.09;99812.94;7393153;19;20022;-68
2022/11/21 02:42:47;;;;;;;34.45;19.70;;;;;;;-1.60;88.25;99813.78;7393420;19;20031;-68
2022/11/21 02:45:20;;;;;;;31.17;18.42;;;;;;;-1.61;88.44;99798.34;7393337;19;20039;-69
2022/11/21 02:47:50;;;;;;;36.67;20.70;;;;;;;-1.58;88.22;99804.38;7394408;19;20086;-69
2022/11/21 02:50:24;;;;;;;33.65;19.63;;;;;;;-1.58;88.42;99800.94;7393267;19;20025;-69
2022/11/21 02:52:54;;;;;;;;;;;;;;;-1.59;88.14;99800.06;7394005;19;20042;-67
2022/11/21 02:55:25;;;;;;;33.25;19.77;;;;;;;-1.59;88.47;99801.78;7394577;19;19966;-68
2022/11/21 02:57:54;;;;;;;35.13;19.58;;;;;;;-1.59;88.32;99801.78;7392831;19;20035;-67
2022/11/21 03:00:23;;;;;;;34.92;20.52;;;;;;;-1.61;88.19;99799.19;7392076;19;20506;-68
2022/11/21 03:02:52;;;;;;;34.08;19.52;;;;;;;-1.60;88.25;99800.06;7394019;19;20019;-68
2022/11/21 03:05:22;;;;;;;30.55;19.20;;;;;;;-1.60;88.64;99805.22;7393746;19;20031;-68
2022/11/21 03:07:51;;;;;;;31.23;19.00;;;;;;;-1.62;88.51;99797.44;7392381;19;20015;-68
2022/11/21 03:10:19;;;;;;;33.15;19.08;;;;;;;-1.60;88.59;99803.50;7391848;19;20019;-68
2022/11/21 03:12:59;;;;;;;34.67;19.98;;;;;;;-1.61;88.27;99799.19;7394008;19;20022;-68
2022/11/21 03:15:29;;;;;;;31.38;18.33;;;;;;;-1.62;88.61;99797.44;7393633;19;20502;-67
2022/11/21 03:17:59;;;;;;;35.05;19.30;;;;;;;-1.62;88.35;99796.59;7393453;19;20492;-67
2022/11/21 03:20:28;;;;;;;28.30;17.13;;;;;;;-1.63;88.38;99790.59;7393264;19;20025;-68
2022/11/21 03:22:57;;;;;;;31.92;19.02;;;;;;;-1.65;88.56;99780.28;7394782;19;20513;-68
2022/11/21 03:25:25;;;;;;;30.42;18.35;;;;;;;-1.64;88.67;99786.28;7393860;19;20018;-68
2022/11/21 03:27:56;;;;;;;33.38;18.70;;;;;;;-1.63;88.63;99790.59;7393544;19;20022;-69
2022/11/21 03:30:27;;;;;;;33.25;20.00;;;;;;;-1.64;88.79;99784.56;7393893;19;20039;-67
2022/11/21 03:32:57;;;;;;;34.80;19.58;;;;;;;-1.61;88.63;99782.91;7391104;19;20474;-69
2022/11/21 03:35:26;;;;;;;35.67;20.17;;;;;;;-1.64;88.40;99782.00;7400638;19;20095;-68
2022/11/21 03:37:54;;;;;;;33.85;20.35;;;;;;;-1.61;88.65;99780.31;7400620;19;20035;-68
2022/11/21 03:40:23;;;;;;;35.65;21.17;;;;;;;-1.62;88.65;99784.59;7400087;19;20439;-68
2022/11/21 03:42:51;;;;;;;35.80;19.30;;;;;;;-1.61;88.64;99782.91;7399842;19;20035;-69
2022/11/21 03:45:22;;;;;;;31.63;19.35;;;;;;;-1.62;88.67;99788.88;7399900;19;20101;-68
2022/11/21 03:47:50;;;;;;;34.75;19.42;;;;;;;-1.64;88.67;99789.72;7397154;19;20552;-69
2022/11/21 03:50:20;;;;;;;33.97;19.17;;;;;;;-1.64;88.58;99791.44;7400573;19;20035;-68
2022/11/21 03:52:48;;;;;;;35.30;19.27;;;;;;;-1.64;88.61;99791.44;7399559;19;20019;-68
2022/11/21 03:55:17;;;;;;;32.58;18.27;;;;;;;-1.67;88.69;99784.56;7400155;19;20095;-68
2022/11/21 03:57:45;;;;;;;31.17;18.73;;;;;;;-1.67;88.80;99792.28;7397253;19;20015;-69
2022/11/21 04:00:15;;;;;;;34.25;19.38;;;;;;;-1.68;88.52;99790.53;7399957;19;20026;-68
2022/11/21 04:02:46;;;;;;;35.40;20.58;;;;;;;-1.71;88.23;99790.47;7399624;19;20022;-68
2022/11/21 04:05:15;;;;;;;34.70;20.52;;;;;;;-1.75;88.46;99791.28;7397708;19;20070;-68
2022/11/21 04:07:43;;;;;;;30.33;18.00;;;;;;;-1.78;88.67;99791.25;7399186;19;20029;-69
2022/11/21 04:10:12;;;;;;;36.22;20.50;;;;;;;-1.80;88.67;99796.38;7399444;19;20027;-68
2022/11/21 04:12:40;;;;;;;35.85;20.63;;;;;;;-1.82;88.42;99808.34;7398959;19;20477;-68
2022/11/21 04:15:09;;;;;;;35.13;19.80;;;;;;;-1.85;88.82;99804.88;7399306;19;20022;-68
2022/11/21 04:17:40;;;;;;;36.38;20.85;;;;;;;-1.87;88.63;99798.84;7399435;19;20077;-68
2022/11/21 04:20:13;;;;;;;38.83;22.20;;;;;;;-1.92;88.59;99805.63;7398944;19;20415;-68
2022/11/21 04:22:41;;;;;;;44.05;23.92;;;;;;;-1.96;88.83;99812.41;7396529;19;20423;-68
2022/11/21 04:25:12;;;;;;;41.40;22.45;;;;;;;-2.03;88.99;99802.91;7398945;19;20018;-68
2022/11/21 04:27:41;;;;;;;41.88;22.77;;;;;;;-2.02;89.13;99807.19;7399526;19;20374;-68
2022/11/21 04:30:10;;;;;;;42.97;24.77;;;;;;;-2.04;89.08;99803.75;7398972;19;20086;-68
2022/11/21 04:32:39;;;;;;;46.55;23.80;;;;;;;-2.04;89.36;99806.31;7398627;19;20018;-69
2022/11/21 04:35:16;;;;;;;41.78;23.33;;;;;;;-2.05;89.48;99808.00;7398279;19;20028;-68
2022/11/21 04:37:44;;;;;;;40.92;24.80;;;;;;;-2.07;89.57;99809.72;7396297;19;20359;-68
2022/11/21 04:40:14;;;;;;;40.10;23.27;;;;;;;-2.11;89.47;99804.50;7398038;19;20027;-68
2022/11/21 04:42:43;;;;;;;43.40;23.50;;;;;;;-2.16;89.73;99805.31;7395886;19;20015;-68
2022/11/21 04:45:13;;;;;;;41.00;22.95;;;;;;;-2.20;89.87;99803.53;7393815;19;20541;-68
2022/11/21 04:47:43;;;;;;;43.65;23.25;;;;;;;-2.22;90.25;99810.34;7397835;19;20086;-68
2022/11/21 04:50:20;;;;;;;43.63;25.38;;;;;;;-2.24;90.40;99809.44;7395518;19;20027;-69
2022/11/21 04:52:58;;;;;;;45.28;26.40;;;;;;;-2.25;90.59;99814.56;7397193;19;20590;-68
2022/11/21 04:55:30;;;;;;;46.45;25.20;;;;;;;-2.28;90.73;99829.97;7397385;19;20074;-69
2022/11/21 04:58:00;;;;;;;46.72;26.88;;;;;;;-2.33;91.25;99823.03;7397318;19;20432;-69
2022/11/21 05:00:28;;;;;;;44.97;25.98;;;;;;;-2.32;90.87;99826.47;7397694;19;20022;-69
2022/11/21 05:02:57;;;;;;;47.15;26.25;;;;;;;-2.33;91.07;99815.31;7395515;19;20098;-70
2022/11/21 05:05:25;;;;;;;45.15;25.55;;;;;;;-2.33;91.20;99817.03;7396984;19;20070;-68
2022/11/21 05:07:53;;;;;;;49.97;27.83;;;;;;;-2.34;91.63;99821.31;7397350;19;20022;-69
2022/11/21 05:10:25;;;;;;;52.30;27.42;;;;;;;-2.36;91.46;99819.56;7395105;19;20018;-68
2022/11/21 05:15:40;;;;;;;50.45;26.73;;;;;;;-2.38;91.79;99816.94;7397664;19;20013;-68
2022/11/21 05:18:08;;;;;;;50.92;27.63;;;;;;;-2.39;91.72;99825.53;7394988;19;20537;-68
2022/11/21 05:20:37;;;;;;;46.15;26.58;;;;;;;-2.39;91.78;99822.06;7397237;19;20014;-69
2022/11/21 05:23:06;;;;;;;46.45;26.67;;;;;;;-2.39;91.61;99825.53;7395255;19;20077;-68
2022/11/21 05:25:37;;;;;;;48.10;27.80;;;;;;;-2.37;91.56;99825.53;7394486;19;20462;-68
2022/11/21 05:28:05;;;;;;;50.10;26.88;;;;;;;-2.38;91.87;99822.09;7396311;19;20534;-69
2022/11/21 05:30:34;;;;;;;50.40;26.98;;;;;;;-2.40;91.68;99815.19;7394947;19;20027;-69
2022/11/21 05:33:02;;;;;;;50.78;27.70;;;;;;;-2.38;91.97;99822.09;7396244;19;20082;-69
2022/11/21 05:35:31;;;;;;;48.70;27.95;;;;;;;-2.37;92.17;99825.53;7394114;19;20406;-69
2022/11/21 05:37:59;;;;;;;51.78;29.15;;;;;;;-2.38;92.31;99834.06;7394654;19;20086;-69
2022/11/21 05:40:28;;;;;;;53.35;29.30;;;;;;;-2.38;92.09;99837.50;7396161;19;20018;-67
2022/11/21 05:45:40;;;;;;;50.42;27.63;;;;;;;-2.39;92.23;99828.09;7396367;19;20374;-70
2022/11/21 05:48:08;;;;;;;59.45;28.92;;;;;;;-2.38;91.95;99823.81;7395849;19;20018;-69
2022/11/21 05:50:38;;;;;;;56.20;29.23;;;;;;;-2.36;92.12;99829.84;7394172;19;20082;-67
2022/11/21 05:53:06;;;;;;;56.00;29.60;;;;;;;-2.35;92.28;99841.81;7393696;19;20027;-69
2022/11/21 05:55:36;;;;;;;55.15;28.13;;;;;;;-2.35;92.34;99839.25;7395791;19;20035;-68
2022/11/21 05:58:07;;;;;;;66.00;33.38;;;;;;;-2.36;92.48;99840.13;7394136;19;20023;-68
2022/11/21 06:00:36;;;;;;;61.40;33.35;;;;;;;-2.35;92.36;99847.84;7394393;19;20018;-69
2022/11/21 06:05:46;;;;;;;56.50;29.73;;;;;;;-2.37;92.31;99854.66;7394049;19;20072;-69
2022/11/21 06:08:14;;;;;;;60.22;31.92;;;;;;;-2.37;92.69;99846.94;7394034;19;20024;-69
2022/11/21 06:10:43;;;;;;;53.17;30.20;;;;;;;-2.37;92.38;99840.94;7394373;19;20014;-69
2022/11/21 06:13:23;;;;;;;53.63;29.80;;;;;;;-2.34;92.56;99835.84;7394554;19;20027;-68
2022/11/21 06:15:55;;;;;;;56.88;31.52;;;;;;;-2.33;92.51;99850.44;7392751;19;20014;-68
2022/11/21 06:18:24;;;;;;;51.15;28.67;;;;;;;-2.33;92.77;99853.84;7395625;19;20022;-67
2022/11/21 06:20:53;;;;;;;57.95;28.92;;;;;;;-2.31;92.55;99851.34;7394507;19;20481;-68
2022/11/21 06:23:22;;;;;;;50.72;28.13;;;;;;;-2.31;92.60;99852.19;7394111;19;20031;-67
2022/11/21 06:25:58;;;;;;;51.03;27.13;;;;;;;-2.30;92.74;99853.03;7394841;19;20036;-68
2022/11/21 06:28:29;;;;;;;52.28;26.58;;;;;;;-2.32;92.68;99854.72;7395320;19;20026;-68
2022/11/21 06:30:58;;;;;;;51.20;27.17;;;;;;;-2.40;92.85;99852.03;7395007;19;20022;-67
2022/11/21 06:33:26;;;;;;;51.75;28.10;;;;;;;-2.40;92.65;99853.72;7393565;19;20019;-68
2022/11/21 06:35:55;;;;;;;48.22;27.80;;;;;;;-2.42;92.52;99855.44;7394613;19;20014;-67
2022/11/21 06:38:23;;;;;;;57.70;30.77;;;;;;;-2.44;92.80;99862.22;7392524;19;20482;-68
2022/11/21 06:40:52;;;;;;;55.95;30.30;;;;;;;-2.47;93.03;99860.47;7393451;19;20011;-68
2022/11/21 06:43:20;;;;;;;54.50;28.63;;;;;;;-2.51;92.79;99868.97;7393628;19;20019;-68
2022/11/21 06:45:51;;;;;;;56.83;27.67;;;;;;;-2.51;92.82;99876.69;7391956;19;20545;-68
2022/11/21 06:48:20;;;;;;;57.20;28.88;;;;;;;-2.54;92.99;99877.50;7392658;19;20019;-69
2022/11/21 06:50:48;;;;;;;58.33;30.30;;;;;;;-2.56;92.92;99876.59;7392300;19;20483;-68
2022/11/21 06:53:16;;;;;;;52.55;29.45;;;;;;;-2.59;92.97;99876.56;7393308;19;20022;-68
2022/11/21 06:55:45;;;;;;;55.47;28.48;;;;;;;-2.58;92.78;99877.41;7391644;19;20015;-68
2022/11/21 06:58:13;;;;;;;58.08;31.50;;;;;;;-2.60;92.72;99890.22;7393697;19;20443;-68
2022/11/21 07:00:43;;;;;;;62.92;32.67;;;;;;;-2.61;92.91;99898.75;7393655;19;20074;-68
2022/11/21 07:03:14;;;;;;;60.05;30.98;;;;;;;-2.61;93.02;99901.34;7390933;19;20018;-70
2022/11/21 07:05:42;;;;;;;53.95;28.23;;;;;;;-2.61;93.05;99909.03;7394114;19;20082;-68
2022/11/21 07:08:11;;;;;;;54.15;29.02;;;;;;;-2.64;92.90;99909.00;7392019;19;20018;-68
2022/11/21 07:10:39;;;;;;;54.17;28.50;;;;;;;-2.65;93.17;99913.25;7400491;19;20501;-67
2022/11/21 07:15:50;;;;;;;57.60;29.25;;;;;;;-2.68;92.94;99918.34;7401062;19;20022;-68
2022/11/21 07:18:22;;;;;;;56.05;28.55;;;;;;;-2.70;93.21;99920.00;7397844;19;20083;-68
2022/11/21 07:20:50;;;;;;;57.45;30.48;;;;;;;-2.71;93.21;99925.97;7400997;19;20015;-69
2022/11/21 07:23:19;;;;;;;50.47;28.38;;;;;;;-2.73;93.09;99924.22;7399321;19;20395;-67
2022/11/21 07:25:47;;;;;;;56.95;28.40;;;;;;;-2.70;93.19;99934.56;7400171;19;20022;-67
2022/11/21 07:28:16;;;;;;;63.40;32.42;;;;;;;-2.68;93.40;99938.00;7396995;19;20085;-69
2022/11/21 07:30:44;;;;;;;65.32;34.53;;;;;;;-2.66;93.40;99936.34;7399774;19;20022;-69
2022/11/21 07:33:13;;;;;;;75.95;38.78;;;;;;;-2.63;93.49;99941.50;7398893;19;20036;-69
2022/11/21 07:35:44;;;;;;;81.75;39.78;;;;;;;-2.60;93.37;99933.88;7400102;19;20108;-68
2022/11/21 07:38:12;;;;;;;80.68;38.72;;;;;;;-2.56;93.39;99938.22;7401385;19;20022;-69
2022/11/21 07:40:41;;;;;;;68.07;35.60;;;;;;;-2.51;93.48;99946.03;7397298;19;20036;-69
2022/11/21 07:43:09;;;;;;;70.80;35.03;;;;;;;-2.48;93.63;99943.50;7398504;19;20565;-68
2022/11/21 07:45:38;;;;;;;57.72;30.40;;;;;;;-2.43;93.52;99939.31;7397519;19;20073;-68
2022/11/21 07:48:09;;;;;;;61.67;30.35;;;;;;;-2.40;93.39;99943.66;7397987;19;20018;-68
2022/11/21 07:50:38;;;;;;;59.97;30.30;;;;;;;-2.37;93.31;99941.16;7397624;19;20481;-68
2022/11/21 07:53:12;;;;;;;55.97;29.52;;;;;;;-2.32;93.30;99949.81;7399620;19;20022;-67
2022/11/21 07:55:41;;;;;;;58.78;32.38;;;;;;;-2.28;93.46;99949.00;7400055;19;20015;-68
2022/11/21 07:58:12;;;;;;;52.45;29.90;;;;;;;-2.23;93.39;99956.81;7399923;19;20030;-68
2022/11/21 08:00:42;;;;;;;55.13;29.02;;;;;;;-2.21;93.21;99949.97;7396990;19;20078;-68
2022/11/21 08:03:11;;;;;;;57.08;29.83;;;;;;;-2.18;93.33;99956.03;7399322;19;20029;-67
2022/11/21 08:05:41;;;;;;;54.92;28.98;;;;;;;-2.13;93.40;99953.56;7399166;19;20481;-68
2022/11/21 08:08:13;;;;;;;52.88;26.98;;;;;;;-2.12;93.19;99950.16;7398166;19;20078;-68
2022/11/21 08:10:44;;;;;;;59.33;31.23;;;;;;;-2.07;93.30;99955.34;7399467;19;20018;-66
2022/11/21 08:13:13;;;;;;;57.45;28.52;;;;;;;-2.06;93.25;99962.22;7396724;19;20015;-68
2022/11/21 08:15:42;;;;;;;52.95;28.55;;;;;;;-2.06;93.08;99959.66;7399452;19;20016;-68
2022/11/21 08:18:11;;;;;;;50.58;27.02;;;;;;;-2.08;93.13;99959.63;7398836;19;20031;-68
2022/11/21 08:20:40;;;;;;;46.83;25.58;;;;;;;-2.07;92.90;99971.66;7395669;19;20039;-67
2022/11/21 08:23:09;;;;;;;48.70;27.30;;;;;;;-2.09;92.93;99969.91;7397720;19;20167;-67
2022/11/21 08:25:42;;;;;;;52.17;28.30;;;;;;;-2.12;93.07;99983.56;7398162;19;20018;-67
2022/11/21 08:28:13;;;;;;;49.22;26.60;;;;;;;-2.14;93.20;99991.25;7396672;19;20022;-67
2022/11/21 08:30:43;;;;;;;56.53;28.92;;;;;;;-2.18;93.16;99986.88;7398131;19;20022;-68
2022/11/21 08:33:11;;;;;;;58.70;28.45;;;;;;;-2.18;93.22;99989.44;7395498;19;20018;-67
2022/11/21 08:35:41;;;;;;;54.35;28.48;;;;;;;-2.18;93.24;99992.00;7395336;19;20031;-67
2022/11/21 08:38:09;;;;;;;52.72;27.13;;;;;;;-2.17;93.37;99991.19;7398034;19;20015;-66
2022/11/21 08:40:41;;;;;;;52.50;26.92;;;;;;;-2.15;93.46;99994.66;7397498;19;20018;-67
2022/11/21 08:43:11;;;;;;;59.95;28.73;;;;;;;-2.13;93.54;99990.38;7397804;19;20436;-68
2022/11/21 08:45:40;;;;;;;59.40;29.25;;;;;;;-2.09;93.75;99995.59;7397680;19;20483;-68
2022/11/21 08:48:12;;;;;;;63.72;31.13;;;;;;;-2.06;93.73;100000.78;7396793;19;20030;-68
2022/11/21 08:50:41;;;;;;;59.47;31.58;;;;;;;-2.05;93.63;99992.25;7396299;19;20014;-67
2022/11/21 08:53:09;;;;;;;59.03;31.10;;;;;;;-2.03;93.36;99993.16;7396947;19;20434;-67
2022/11/21 08:55:40;;;;;;;55.70;30.15;;;;;;;-2.02;93.43;99994.84;7397827;19;20082;-68
2022/11/21 08:58:09;;;;;;;62.80;31.48;;;;;;;-2.00;93.87;99993.19;7395961;19;20039;-68
2022/11/21 09:00:37;;;;;;;59.28;31.20;;;;;;;-1.97;93.75;99988.97;7395552;19;20015;-67
2022/11/21 09:03:06;;;;;;;57.67;30.00;;;;;;;-1.95;93.46;99988.97;7397217;19;20040;-67
2022/11/21 09:05:35;;;;;;;59.67;31.92;;;;;;;-1.92;93.32;99991.63;7397543;19;20102;-67
2022/11/21 09:08:03;;;;;;;57.40;29.58;;;;;;;-1.92;93.37;99983.03;7394790;19;20477;-68
2022/11/21 09:10:32;;;;;;;50.75;27.80;;;;;;;-1.90;93.53;100001.94;7395264;19;20035;-68
2022/11/21 09:13:03;;;;;;;50.10;28.08;;;;;;;-1.87;93.17;100000.28;7396465;19;20436;-69
2022/11/21 09:18:13;;;;;;;48.97;27.65;;;;;;;-1.81;93.39;100004.66;7397189;19;20460;-68
2022/11/21 09:20:43;;;;;;;49.03;27.88;;;;;;;-1.78;93.32;100007.28;7396820;19;20018;-68
2022/11/21 09:23:13;;;;;;;49.58;27.50;;;;;;;-1.76;93.32;100010.72;7394795;19;20015;-67
2022/11/21 09:25:42;;;;;;;47.50;25.92;;;;;;;-1.70;93.17;100020.25;7397169;19;20022;-67
2022/11/21 09:28:15;;;;;;;46.65;26.95;;;;;;;-1.67;92.98;100015.16;7394631;19;20025;-68
2022/11/21 09:30:45;;;;;;;49.65;27.33;;;;;;;-1.65;92.58;100022.06;7396789;19;20082;-68
2022/11/21 09:33:16;;;;;;;47.85;27.70;;;;;;;-1.61;93.00;100025.56;7394238;19;20113;-68
2022/11/21 09:35:45;;;;;;;52.13;29.15;;;;;;;-1.60;92.05;100022.13;7397047;19;20023;-67
2022/11/21 09:38:13;;;;;;;46.50;27.48;;;;;;;-1.58;92.56;100027.31;7395402;19;20040;-67
2022/11/21 09:40:45;;;;;;;45.05;26.67;;;;;;;-1.65;91.18;100040.06;7395589;19;20026;-66
2022/11/21 09:43:34;;;;;;;44.97;26.60;;;;;;;-1.67;91.34;100028.91;7396152;19;20078;-68
2022/11/21 09:46:07;;;;;;;42.42;26.80;;;;;;;-1.66;91.86;100050.34;7395460;19;20018;-67
2022/11/21 09:48:41;;;;;;;40.90;24.50;;;;;;;-1.72;91.04;100038.25;7394737;19;20035;-68
2022/11/21 09:51:15;;;;;;;39.55;25.25;;;;;;;-1.74;91.71;100044.22;7396165;19;20126;-67
2022/11/21 09:53:55;;;;;;;34.90;21.58;;;;;;;-1.74;91.61;100041.63;7393529;19;20080;-68
2022/11/21 09:56:25;;;;;;;39.70;23.95;;;;;;;-1.73;91.63;100045.91;7396199;19;20015;-67
2022/11/21 09:59:24;;;;;;;38.55;23.08;;;;;;;-1.71;91.89;100050.25;7395331;19;20377;-68
2022/11/21 10:01:53;;;;;;;39.42;23.13;;;;;;;-1.67;91.36;100049.47;7394993;19;20010;-68
2022/11/21 10:04:21;;;;;;;39.58;22.77;;;;;;;-1.65;91.60;100057.22;7394112;19;20221;-68
2022/11/21 10:07:02;;;;;;;36.90;22.48;;;;;;;-1.63;91.17;100052.97;7395530;19;20085;-67
2022/11/21 10:09:44;;;;;;;32.50;22.23;;;;;;;-1.62;91.16;100054.69;7395977;19;20017;-67
2022/11/21 10:15:17;;;;;;;32.92;22.13;;;;;;;-1.57;90.94;100054.78;7395426;19;20078;-68
2022/11/21 10:18:02;;;;;;;36.22;22.60;;;;;;;-1.55;91.03;100061.66;7396126;19;20022;-68
2022/11/21 10:20:51;;;;;;;33.40;20.90;;;;;;;-1.51;91.75;100060.88;7393716;19;20507;-67
2022/11/21 10:23:45;;;;;;;38.08;23.33;;;;;;;-1.48;90.78;100063.50;7393439;19;20050;-69
2022/11/21 10:26:19;;;;;;;33.55;21.98;;;;;;;-1.48;90.50;100053.22;7395235;19;20018;-68
2022/11/21 10:28:54;;;;;;;29.33;19.13;;;;;;;-1.46;90.09;100060.09;7393593;19;20549;-69
2022/11/21 10:31:27;;;;;;;34.50;21.17;;;;;;;-1.44;90.06;100060.97;7394627;19;20500;-67
2022/11/21 10:33:58;;;;;;;33.35;21.35;;;;;;;-1.42;90.31;100052.44;7393213;19;20036;-68
2022/11/21 10:36:32;;;;;;;35.95;22.90;;;;;;;-1.45;90.14;100052.41;7394717;19;20023;-67
2022/11/21 10:39:06;;;;;;;31.60;21.08;;;;;;;-1.36;90.86;100056.84;7394084;19;20018;-67
2022/11/21 10:41:42;;;;;;;33.15;21.40;;;;;;;-1.29;90.15;100058.63;7395153;19;20040;-67
2022/11/21 10:47:03;;;;;;;32.33;22.13;;;;;;;-1.20;90.03;100058.78;7401832;19;20056;-67
2022/11/21 10:49:43;;;;;;;117.78;63.20;;;;;;;-1.14;91.02;100060.59;7398882;19;20020;-66
2022/11/21 10:52:25;;;;;;;32.70;21.25;;;;;;;-1.09;90.71;100052.94;7399847;19;20022;-68
2022/11/21 10:55:12;;;;;;;40.55;24.10;;;;;;;-1.05;90.58;100055.59;7398658;19;20029;-67
2022/11/21 10:57:44;;;;;;;34.40;22.45;;;;;;;-0.99;90.57;100053.09;7401423;19;20505;-68
2022/11/21 11:00:23;;;;;;;32.58;21.73;;;;;;;-0.95;90.15;100059.13;7399239;19;20070;-70
2022/11/21 11:03:07;;;;;;;31.90;23.23;;;;;;;-0.91;90.29;100055.78;7398228;19;20035;-66
2022/11/21 11:05:37;;;;;;;35.45;21.63;;;;;;;-0.89;90.12;100054.06;7400750;19;20514;-68
2022/11/21 11:08:09;;;;;;;35.03;22.75;;;;;;;-0.84;89.60;100054.16;7399751;19;20082;-68
2022/11/21 11:10:40;;;;;;;34.22;23.10;;;;;;;-0.80;89.74;100055.91;7398669;19;20031;-67
2022/11/21 11:16:04;;;;;;;32.92;19.75;;;;;;;-0.72;88.30;100053.44;7401243;19;20007;-68
2022/11/21 11:18:37;;;;;;;32.47;21.13;;;;;;;-0.69;89.52;100050.91;7397756;19;20032;-68
2022/11/21 11:21:19;;;;;;;25.42;17.17;;;;;;;-0.68;88.24;100053.50;7401267;19;20027;-68
2022/11/21 11:23:48;;;;;;;22.50;15.75;;;;;;;-0.66;86.84;100058.66;7397745;19;20037;-67
2022/11/21 11:26:23;;;;;;;20.40;15.60;;;;;;;-0.64;88.59;100058.69;7399790;19;20478;-67
2022/11/21 11:28:52;;;;;;;24.48;16.52;;;;;;;-0.63;87.83;100066.47;7397406;19;20416;-69
2022/11/21 11:31:20;;;;;;;26.25;17.45;;;;;;;-0.62;88.86;100069.88;7399674;19;20482;-66
2022/11/21 11:33:57;;;;;;;25.35;16.98;;;;;;;-0.60;88.95;100074.22;7398881;19;20019;-67
2022/11/21 11:36:39;;;;;;;25.73;17.27;;;;;;;-0.52;89.28;100070.03;7397874;19;20086;-68
2022/11/21 11:39:19;;;;;;;30.17;19.05;;;;;;;-0.44;89.52;100064.97;7398781;19;20033;-68
2022/11/21 11:47:51;;;;;;;30.00;19.77;;;;;;;-0.32;86.61;100065.97;7395524;19;20034;-67
2022/11/21 11:50:26;;;;;;;27.42;19.40;;;;;;;-0.34;87.63;100065.97;7399072;19;20027;-68
2022/11/21 11:53:02;;;;;;;30.45;20.33;;;;;;;-0.35;87.38;100067.66;7399112;19;20506;-68
2022/11/21 11:55:37;;;;;;;29.13;19.55;;;;;;;-0.37;86.42;100069.38;7398314;19;20035;-68
2022/11/21 11:58:13;;;;;;;30.20;21.00;;;;;;;-0.36;88.08;100059.91;7399979;19;20428;-69
2022/11/21 12:00:47;;;;;;;32.13;20.75;;;;;;;-0.31;88.17;100058.25;7400840;19;20081;-68
2022/11/21 12:03:21;;;;;;;30.92;20.60;;;;;;;-0.27;87.40;100060.00;7398234;19;20074;-68